sensor_id;sensor_type;location;lat;lon;timestamp;pressure;altitude;pressure_sealevel;temperature;humidity
4814;BME280;15375;48.540;9.268;2023-03-19T00:01:23;97058.94;;;9.46;87.00
4814;BME280;15375;48.540;9.268;2023-03-19T00:03:49;97056.75;;;9.38;86.83
4814;BME280;15375;48.540;9.268;2023-03-19T00:06:14;97027.56;;;9.19;88.03
4814;BME280;15375;48.540;9.268;2023-03-19T00:08:39;97050.47;;;9.41;89.37
4814;BME280;15375;48.540;9.268;2023-03-19T00:11:10;97061.03;;;9.39;88.76
4814;BME280;15375;48.540;9.268;2023-03-19T00:13:36;97062.88;;;9.42;88.63
4814;BME280;15375;48.540;9.268;2023-03-19T00:16:05;97028.56;;;9.05;88.44
4814;BME280;15375;48.540;9.268;2023-03-19T00:18:31;97062.31;;;9.31;88.22
4814;BME280;15375;48.540;9.268;2023-03-19T00:20:57;97067.34;;;9.32;88.85
4814;BME280;15375;48.540;9.268;2023-03-19T00:23:23;97025.72;;;9.12;88.81
4814;BME280;15375;48.540;9.268;2023-03-19T00:25:48;97065.88;;;9.28;88.63
4814;BME280;15375;48.540;9.268;2023-03-19T00:28:14;97030.19;;;8.99;89.44
4814;BME280;15375;48.540;9.268;2023-03-19T00:30:39;97067.34;;;9.32;89.57
4814;BME280;15375;48.540;9.268;2023-03-19T00:33:05;97038.44;;;9.19;89.11
4814;BME280;15375;48.540;9.268;2023-03-19T00:35:30;97042.69;;;9.20;89.39
4814;BME280;15375;48.540;9.268;2023-03-19T00:37:56;97072.31;;;9.37;90.15
4814;BME280;15375;48.540;9.268;2023-03-19T00:40:22;97061.97;;;9.29;89.65
4814;BME280;15375;48.540;9.268;2023-03-19T00:42:47;97059.25;;;9.29;90.22
4814;BME280;15375;48.540;9.268;2023-03-19T00:45:13;97066.22;;;9.30;89.81
4814;BME280;15375;48.540;9.268;2023-03-19T00:47:38;97066.16;;;9.33;90.17
4814;BME280;15375;48.540;9.268;2023-03-19T00:50:04;97073.78;;;9.42;90.49
4814;BME280;15375;48.540;9.268;2023-03-19T00:52:30;97064.78;;;9.45;90.95
4814;BME280;15375;48.540;9.268;2023-03-19T00:54:56;97054.22;;;9.27;90.03
4814;BME280;15375;48.540;9.268;2023-03-19T00:57:21;97074.00;;;9.31;91.17
4814;BME280;15375;48.540;9.268;2023-03-19T00:59:46;97074.03;;;9.28;91.27
4814;BME280;15375;48.540;9.268;2023-03-19T01:02:12;97086.03;;;9.30;90.98
4814;BME280;15375;48.540;9.268;2023-03-19T01:04:37;97078.34;;;9.25;90.20
4814;BME280;15375;48.540;9.268;2023-03-19T01:07:03;97090.50;;;9.21;91.12
4814;BME280;15375;48.540;9.268;2023-03-19T01:09:28;97096.41;;;9.16;92.48
4814;BME280;15375;48.540;9.268;2023-03-19T01:11:54;97083.66;;;9.09;91.46
4814;BME280;15375;48.540;9.268;2023-03-19T01:14:20;97112.28;;;9.17;90.77
4814;BME280;15375;48.540;9.268;2023-03-19T01:16:45;97081.25;;;9.15;87.40
4814;BME280;15375;48.540;9.268;2023-03-19T01:19:11;97098.09;;;9.29;87.11
4814;BME280;15375;48.540;9.268;2023-03-19T01:21:36;97117.41;;;9.38;85.30
4814;BME280;15375;48.540;9.268;2023-03-19T01:24:02;97099.06;;;9.42;82.04
4814;BME280;15375;48.540;9.268;2023-03-19T01:26:27;97117.50;;;9.54;82.60
4814;BME280;15375;48.540;9.268;2023-03-19T01:28:53;97127.56;;;9.57;84.31
4814;BME280;15375;48.540;9.268;2023-03-19T01:31:18;97122.59;;;9.52;83.45
4814;BME280;15375;48.540;9.268;2023-03-19T01:33:44;97110.06;;;9.35;80.93
4814;BME280;15375;48.540;9.268;2023-03-19T01:36:09;97107.94;;;9.46;79.81
4814;BME280;15375;48.540;9.268;2023-03-19T01:38:35;97105.22;;;9.46;78.58
4814;BME280;15375;48.540;9.268;2023-03-19T01:41:00;97107.56;;;9.44;78.37
4814;BME280;15375;48.540;9.268;2023-03-19T01:43:28;97125.56;;;9.61;77.39
4814;BME280;15375;48.540;9.268;2023-03-19T01:46:06;97129.75;;;9.66;78.18
4814;BME280;15375;48.540;9.268;2023-03-19T01:48:41;97106.91;;;9.60;77.47
4814;BME280;15375;48.540;9.268;2023-03-19T01:51:10;97120.03;;;9.65;76.99
4814;BME280;15375;48.540;9.268;2023-03-19T01:53:38;97112.59;;;9.69;77.86
4814;BME280;15375;48.540;9.268;2023-03-19T01:56:15;97123.06;;;9.71;77.29
4814;BME280;15375;48.540;9.268;2023-03-19T01:58:43;97113.28;;;9.73;77.28
4814;BME280;15375;48.540;9.268;2023-03-19T02:01:11;97131.53;;;9.76;76.94
4814;BME280;15375;48.540;9.268;2023-03-19T02:03:37;97113.59;;;9.79;78.69
4814;BME280;15375;48.540;9.268;2023-03-19T02:06:03;97074.56;;;9.42;80.41
4814;BME280;15375;48.540;9.268;2023-03-19T02:08:30;97114.72;;;9.58;82.20
4814;BME280;15375;48.540;9.268;2023-03-19T02:10:56;97129.13;;;9.58;85.85
4814;BME280;15375;48.540;9.268;2023-03-19T02:13:25;97125.09;;;9.43;87.89
4814;BME280;15375;48.540;9.268;2023-03-19T02:15:52;97113.59;;;9.32;88.92
4814;BME280;15375;48.540;9.268;2023-03-19T02:18:18;97101.50;;;9.14;90.97
4814;BME280;15375;48.540;9.268;2023-03-19T02:21:09;97149.00;;;9.32;94.63
4814;BME280;15375;48.540;9.268;2023-03-19T02:26:38;97144.75;;;9.31;95.29
4814;BME280;15375;48.540;9.268;2023-03-19T02:29:05;97154.75;;;9.38;96.35
4814;BME280;15375;48.540;9.268;2023-03-19T02:31:31;97147.03;;;9.33;96.66
4814;BME280;15375;48.540;9.268;2023-03-19T02:34:02;97158.47;;;9.47;94.13
4814;BME280;15375;48.540;9.268;2023-03-19T02:36:34;97139.97;;;9.39;93.95
4814;BME280;15375;48.540;9.268;2023-03-19T02:39:05;97160.84;;;9.45;95.46
4814;BME280;15375;48.540;9.268;2023-03-19T02:41:31;97144.75;;;9.31;95.98
4814;BME280;15375;48.540;9.268;2023-03-19T02:44:00;97153.91;;;9.41;100.00
4814;BME280;15375;48.540;9.268;2023-03-19T02:46:27;97150.88;;;9.35;100.00
4814;BME280;15375;48.540;9.268;2023-03-19T02:48:53;97064.50;;;8.66;100.00
4814;BME280;15375;48.540;9.268;2023-03-19T02:51:18;97127.56;;;8.84;100.00
4814;BME280;15375;48.540;9.268;2023-03-19T02:53:44;97143.47;;;9.13;100.00
4814;BME280;15375;48.540;9.268;2023-03-19T02:56:09;97130.34;;;8.81;100.00
4814;BME280;15375;48.540;9.268;2023-03-19T02:58:35;97126.28;;;8.66;100.00
4814;BME280;15375;48.540;9.268;2023-03-19T03:01:00;97119.94;;;8.76;100.00
4814;BME280;15375;48.540;9.268;2023-03-19T03:03:25;97128.44;;;8.78;100.00
4814;BME280;15375;48.540;9.268;2023-03-19T03:05:51;97141.16;;;8.84;100.00
4814;BME280;15375;48.540;9.268;2023-03-19T03:08:16;97102.28;;;8.61;100.00
4814;BME280;15375;48.540;9.268;2023-03-19T03:10:42;97156.25;;;8.89;100.00
4814;BME280;15375;48.540;9.268;2023-03-19T03:13:08;97152.47;;;8.83;100.00
4814;BME280;15375;48.540;9.268;2023-03-19T03:15:33;97129.25;;;8.75;100.00
4814;BME280;15375;48.540;9.268;2023-03-19T03:17:58;97139.25;;;8.81;100.00
4814;BME280;15375;48.540;9.268;2023-03-19T03:20:24;97154.13;;;9.04;100.00
4814;BME280;15375;48.540;9.268;2023-03-19T03:22:50;97121.56;;;8.70;100.00
4814;BME280;15375;48.540;9.268;2023-03-19T03:25:16;97160.00;;;8.98;100.00
4814;BME280;15375;48.540;9.268;2023-03-19T03:27:41;97159.56;;;9.04;100.00
4814;BME280;15375;48.540;9.268;2023-03-19T03:30:08;97143.06;;;8.87;100.00
4814;BME280;15375;48.540;9.268;2023-03-19T03:32:36;97111.56;;;8.63;100.00
4814;BME280;15375;48.540;9.268;2023-03-19T03:35:03;97150.81;;;8.89;100.00
4814;BME280;15375;48.540;9.268;2023-03-19T03:37:29;97118.38;;;8.75;100.00
4814;BME280;15375;48.540;9.268;2023-03-19T03:39:55;97137.59;;;8.91;100.00
4814;BME280;15375;48.540;9.268;2023-03-19T03:42:20;97150.88;;;8.85;100.00
4814;BME280;15375;48.540;9.268;2023-03-19T03:44:45;97159.59;;;9.00;100.00
4814;BME280;15375;48.540;9.268;2023-03-19T03:47:11;97151.53;;;8.93;100.00
4814;BME280;15375;48.540;9.268;2023-03-19T03:49:37;97106.88;;;8.64;100.00
4814;BME280;15375;48.540;9.268;2023-03-19T03:52:03;97166.31;;;8.92;100.00
4814;BME280;15375;48.540;9.268;2023-03-19T03:54:28;97140.94;;;8.72;100.00
4814;BME280;15375;48.540;9.268;2023-03-19T03:56:53;97135.97;;;8.67;100.00
4814;BME280;15375;48.540;9.268;2023-03-19T03:59:19;97115.28;;;8.46;100.00
4814;BME280;15375;48.540;9.268;2023-03-19T04:01:44;97135.63;;;8.65;100.00
4814;BME280;15375;48.540;9.268;2023-03-19T04:04:10;97114.44;;;8.53;100.00
4814;BME280;15375;48.540;9.268;2023-03-19T04:06:35;97171.94;;;8.78;100.00
4814;BME280;15375;48.540;9.268;2023-03-19T04:09:01;97174.31;;;8.76;100.00
4814;BME280;15375;48.540;9.268;2023-03-19T04:11:27;97120.78;;;8.43;100.00
4814;BME280;15375;48.540;9.268;2023-03-19T04:13:55;97154.66;;;8.65;100.00
4814;BME280;15375;48.540;9.268;2023-03-19T04:16:22;97160.91;;;8.62;100.00
4814;BME280;15375;48.540;9.268;2023-03-19T04:18:48;97166.06;;;8.53;100.00
4814;BME280;15375;48.540;9.268;2023-03-19T04:21:13;97172.31;;;8.50;100.00
4814;BME280;15375;48.540;9.268;2023-03-19T04:23:39;97151.88;;;8.38;100.00
4814;BME280;15375;48.540;9.268;2023-03-19T04:26:05;97179.31;;;8.51;100.00
4814;BME280;15375;48.540;9.268;2023-03-19T04:28:33;97164.63;;;8.45;100.00
4814;BME280;15375;48.540;9.268;2023-03-19T04:31:00;97154.59;;;8.38;100.00
4814;BME280;15375;48.540;9.268;2023-03-19T04:33:26;97157.25;;;8.42;100.00
4814;BME280;15375;48.540;9.268;2023-03-19T04:35:51;97182.25;;;8.63;100.00
4814;BME280;15375;48.540;9.268;2023-03-19T04:38:17;97151.25;;;8.57;100.00
4814;BME280;15375;48.540;9.268;2023-03-19T04:40:42;97164.34;;;8.66;100.00
4814;BME280;15375;48.540;9.268;2023-03-19T04:43:07;97156.56;;;8.68;100.00
4814;BME280;15375;48.540;9.268;2023-03-19T04:45:32;97144.31;;;8.53;100.00
4814;BME280;15375;48.540;9.268;2023-03-19T04:47:58;97144.31;;;8.53;100.00
4814;BME280;15375;48.540;9.268;2023-03-19T04:50:23;97158.97;;;8.59;100.00
4814;BME280;15375;48.540;9.268;2023-03-19T04:52:49;97165.94;;;8.63;100.00
4814;BME280;15375;48.540;9.268;2023-03-19T04:55:14;97177.53;;;8.67;100.00
4814;BME280;15375;48.540;9.268;2023-03-19T04:57:40;97182.84;;;8.78;100.00
4814;BME280;15375;48.540;9.268;2023-03-19T05:00:05;97179.31;;;8.81;100.00
4814;BME280;15375;48.540;9.268;2023-03-19T05:02:31;97179.00;;;8.72;100.00
4814;BME280;15375;48.540;9.268;2023-03-19T05:04:56;97152.88;;;8.51;100.00
4814;BME280;15375;48.540;9.268;2023-03-19T05:07:22;97165.38;;;8.45;100.00
4814;BME280;15375;48.540;9.268;2023-03-19T05:09:47;97178.44;;;8.57;100.00
4814;BME280;15375;48.540;9.268;2023-03-19T05:12:13;97191.91;;;8.68;100.00
4814;BME280;15375;48.540;9.268;2023-03-19T05:14:38;97202.25;;;8.76;100.00
4814;BME280;15375;48.540;9.268;2023-03-19T05:17:04;97206.88;;;8.79;100.00
4814;BME280;15375;48.540;9.268;2023-03-19T05:19:29;97179.97;;;8.58;100.00
4814;BME280;15375;48.540;9.268;2023-03-19T05:21:55;97203.84;;;8.74;100.00
4814;BME280;15375;48.540;9.268;2023-03-19T05:24:25;97210.03;;;8.78;100.00
4814;BME280;15375;48.540;9.268;2023-03-19T05:26:50;97201.13;;;8.74;100.00
4814;BME280;15375;48.540;9.268;2023-03-19T05:29:16;97207.75;;;8.73;100.00
4814;BME280;15375;48.540;9.268;2023-03-19T05:31:41;97191.22;;;8.60;100.00
4814;BME280;15375;48.540;9.268;2023-03-19T05:34:08;97213.41;;;8.85;100.00
4814;BME280;15375;48.540;9.268;2023-03-19T05:36:33;97191.00;;;8.78;100.00
4814;BME280;15375;48.540;9.268;2023-03-19T05:38:59;97197.50;;;8.84;100.00
4814;BME280;15375;48.540;9.268;2023-03-19T05:41:25;97196.75;;;8.83;100.00
4814;BME280;15375;48.540;9.268;2023-03-19T05:43:51;97202.81;;;8.94;100.00
4814;BME280;15375;48.540;9.268;2023-03-19T05:46:16;97213.56;;;9.02;100.00
4814;BME280;15375;48.540;9.268;2023-03-19T05:48:41;97208.25;;;8.94;100.00
4814;BME280;15375;48.540;9.268;2023-03-19T05:51:07;97189.72;;;8.86;100.00
4814;BME280;15375;48.540;9.268;2023-03-19T05:53:32;97190.19;;;8.81;100.00
4814;BME280;15375;48.540;9.268;2023-03-19T05:55:58;97184.75;;;8.81;100.00
4814;BME280;15375;48.540;9.268;2023-03-19T05:58:24;97199.31;;;8.94;100.00
4814;BME280;15375;48.540;9.268;2023-03-19T06:00:54;97221.34;;;9.03;100.00
4814;BME280;15375;48.540;9.268;2023-03-19T06:03:21;97223.19;;;9.10;100.00
4814;BME280;15375;48.540;9.268;2023-03-19T06:05:50;97190.44;;;8.90;100.00
4814;BME280;15375;48.540;9.268;2023-03-19T06:08:16;97225.09;;;9.13;100.00
4814;BME280;15375;48.540;9.268;2023-03-19T06:10:42;97224.28;;;9.16;100.00
4814;BME280;15375;48.540;9.268;2023-03-19T06:13:07;97230.84;;;9.18;100.00
4814;BME280;15375;48.540;9.268;2023-03-19T06:15:32;97228.44;;;9.24;100.00
4814;BME280;15375;48.540;9.268;2023-03-19T06:17:58;97233.34;;;9.32;100.00
4814;BME280;15375;48.540;9.268;2023-03-19T06:20:23;97216.47;;;9.18;100.00
4814;BME280;15375;48.540;9.268;2023-03-19T06:22:49;97231.09;;;9.27;100.00
4814;BME280;15375;48.540;9.268;2023-03-19T06:25:14;97250.34;;;9.40;100.00
4814;BME280;15375;48.540;9.268;2023-03-19T06:27:40;97252.56;;;9.48;100.00
4814;BME280;15375;48.540;9.268;2023-03-19T06:30:06;97247.25;;;9.41;100.00
4814;BME280;15375;48.540;9.268;2023-03-19T06:32:31;97236.34;;;9.41;100.00
4814;BME280;15375;48.540;9.268;2023-03-19T06:34:57;97228.88;;;9.45;100.00
4814;BME280;15375;48.540;9.268;2023-03-19T06:37:22;97240.19;;;9.44;100.00
4814;BME280;15375;48.540;9.268;2023-03-19T06:39:48;97243.31;;;9.42;100.00
4814;BME280;15375;48.540;9.268;2023-03-19T06:42:13;97268.44;;;9.53;100.00
4814;BME280;15375;48.540;9.268;2023-03-19T06:44:39;97255.66;;;9.50;100.00
4814;BME280;15375;48.540;9.268;2023-03-19T06:47:04;97273.47;;;9.55;100.00
4814;BME280;15375;48.540;9.268;2023-03-19T06:49:29;97259.53;;;9.49;100.00
4814;BME280;15375;48.540;9.268;2023-03-19T06:51:55;97250.91;;;9.54;100.00
4814;BME280;15375;48.540;9.268;2023-03-19T06:54:20;97224.03;;;9.33;100.00
4814;BME280;15375;48.540;9.268;2023-03-19T06:56:46;97247.13;;;9.48;100.00
4814;BME280;15375;48.540;9.268;2023-03-19T06:59:13;97260.78;;;9.72;100.00
4814;BME280;15375;48.540;9.268;2023-03-19T07:01:41;97248.69;;;9.73;100.00
4814;BME280;15375;48.540;9.268;2023-03-19T07:04:07;97242.13;;;9.70;100.00
4814;BME280;15375;48.540;9.268;2023-03-19T07:06:33;97232.81;;;9.68;100.00
4814;BME280;15375;48.540;9.268;2023-03-19T07:08:59;97221.22;;;9.63;100.00
4814;BME280;15375;48.540;9.268;2023-03-19T07:11:24;97252.72;;;9.88;100.00
4814;BME280;15375;48.540;9.268;2023-03-19T07:13:50;97236.38;;;9.88;100.00
4814;BME280;15375;48.540;9.268;2023-03-19T07:16:15;97240.22;;;9.90;100.00
4814;BME280;15375;48.540;9.268;2023-03-19T07:18:40;97265.66;;;10.07;100.00
4814;BME280;15375;48.540;9.268;2023-03-19T07:21:06;97241.47;;;10.09;100.00
4814;BME280;15375;48.540;9.268;2023-03-19T07:23:31;97246.94;;;10.09;100.00
4814;BME280;15375;48.540;9.268;2023-03-19T07:25:57;97242.34;;;10.02;100.00
4814;BME280;15375;48.540;9.268;2023-03-19T07:28:22;97249.22;;;10.10;100.00
4814;BME280;15375;48.540;9.268;2023-03-19T07:30:50;97266.03;;;10.32;100.00
4814;BME280;15375;48.540;9.268;2023-03-19T07:33:16;97245.66;;;10.17;100.00
4814;BME280;15375;48.540;9.268;2023-03-19T07:35:41;97258.06;;;10.41;100.00
4814;BME280;15375;48.540;9.268;2023-03-19T07:38:06;97266.88;;;10.49;100.00
4814;BME280;15375;48.540;9.268;2023-03-19T07:40:32;97253.72;;;10.63;100.00
4814;BME280;15375;48.540;9.268;2023-03-19T07:42:57;97247.78;;;10.68;100.00
4814;BME280;15375;48.540;9.268;2023-03-19T07:45:22;97245.97;;;10.81;100.00
4814;BME280;15375;48.540;9.268;2023-03-19T07:47:49;97245.31;;;10.94;100.00
4814;BME280;15375;48.540;9.268;2023-03-19T07:50:14;97229.63;;;10.98;100.00
4814;BME280;15375;48.540;9.268;2023-03-19T07:52:40;97252.41;;;11.27;100.00
4814;BME280;15375;48.540;9.268;2023-03-19T07:55:05;97225.88;;;11.27;100.00
4814;BME280;15375;48.540;9.268;2023-03-19T07:57:31;97241.94;;;11.41;100.00
4814;BME280;15375;48.540;9.268;2023-03-19T07:59:57;97249.06;;;11.55;100.00
4814;BME280;15375;48.540;9.268;2023-03-19T08:02:22;97245.81;;;11.60;100.00
4814;BME280;15375;48.540;9.268;2023-03-19T08:04:48;97266.06;;;11.79;100.00
4814;BME280;15375;48.540;9.268;2023-03-19T08:07:13;97258.31;;;11.77;100.00
4814;BME280;15375;48.540;9.268;2023-03-19T08:09:40;97256.59;;;11.83;100.00
4814;BME280;15375;48.540;9.268;2023-03-19T08:12:05;97280.53;;;11.95;100.00
4814;BME280;15375;48.540;9.268;2023-03-19T08:14:32;97273.25;;;12.05;100.00
4814;BME280;15375;48.540;9.268;2023-03-19T08:16:58;97253.41;;;12.01;100.00
4814;BME280;15375;48.540;9.268;2023-03-19T08:19:23;97262.53;;;12.27;100.00
4814;BME280;15375;48.540;9.268;2023-03-19T08:21:49;97265.72;;;12.54;100.00
4814;BME280;15375;48.540;9.268;2023-03-19T08:24:14;97246.34;;;12.77;100.00
4814;BME280;15375;48.540;9.268;2023-03-19T08:26:40;97239.88;;;13.12;100.00
4814;BME280;15375;48.540;9.268;2023-03-19T08:29:05;97270.25;;;13.68;100.00
4814;BME280;15375;48.540;9.268;2023-03-19T08:31:31;97261.69;;;14.04;100.00
4814;BME280;15375;48.540;9.268;2023-03-19T08:33:57;97260.53;;;14.39;97.27
4814;BME280;15375;48.540;9.268;2023-03-19T08:36:24;97253.09;;;14.61;90.01
4814;BME280;15375;48.540;9.268;2023-03-19T08:38:50;97241.94;;;14.43;74.05
4814;BME280;15375;48.540;9.268;2023-03-19T08:41:19;97259.47;;;14.12;72.93
4814;BME280;15375;48.540;9.268;2023-03-19T08:43:48;97251.28;;;13.99;71.50
4814;BME280;15375;48.540;9.268;2023-03-19T08:46:14;97248.66;;;13.83;71.09
4814;BME280;15375;48.540;9.268;2023-03-19T08:48:39;97227.19;;;13.43;69.73
4814;BME280;15375;48.540;9.268;2023-03-19T08:51:05;97247.16;;;13.57;71.41
4814;BME280;15375;48.540;9.268;2023-03-19T08:53:31;97258.13;;;13.57;69.68
4814;BME280;15375;48.540;9.268;2023-03-19T08:55:59;97255.38;;;13.57;71.22
4814;BME280;15375;48.540;9.268;2023-03-19T08:58:25;97253.91;;;13.77;71.16
4814;BME280;15375;48.540;9.268;2023-03-19T09:00:51;97249.84;;;13.94;69.65
4814;BME280;15375;48.540;9.268;2023-03-19T09:03:18;97193.41;;;13.72;66.90
4814;BME280;15375;48.540;9.268;2023-03-19T09:05:45;97263.69;;;14.25;68.02
4814;BME280;15375;48.540;9.268;2023-03-19T09:08:11;97258.72;;;14.45;67.23
4814;BME280;15375;48.540;9.268;2023-03-19T09:10:37;97260.34;;;14.55;64.91
4814;BME280;15375;48.540;9.268;2023-03-19T09:13:02;97259.16;;;15.00;66.19
4814;BME280;15375;48.540;9.268;2023-03-19T09:15:28;97250.13;;;15.21;62.36
4814;BME280;15375;48.540;9.268;2023-03-19T09:17:53;97258.25;;;15.24;59.22
4814;BME280;15375;48.540;9.268;2023-03-19T09:20:19;97263.34;;;15.13;61.65
4814;BME280;15375;48.540;9.268;2023-03-19T09:22:44;97258.47;;;15.39;60.24
4814;BME280;15375;48.540;9.268;2023-03-19T09:25:10;97240.97;;;15.24;59.55
4814;BME280;15375;48.540;9.268;2023-03-19T09:27:36;97228.66;;;15.68;58.58
4814;BME280;15375;48.540;9.268;2023-03-19T09:30:01;97254.72;;;16.71;58.28
4814;BME280;15375;48.540;9.268;2023-03-19T09:32:27;97248.72;;;16.54;55.41
4814;BME280;15375;48.540;9.268;2023-03-19T09:34:53;97233.81;;;16.06;55.56
4814;BME280;15375;48.540;9.268;2023-03-19T09:37:18;97231.38;;;16.17;57.38
4814;BME280;15375;48.540;9.268;2023-03-19T09:39:43;97243.06;;;16.67;54.51
4814;BME280;15375;48.540;9.268;2023-03-19T09:42:36;97260.66;;;16.87;53.05
4814;BME280;15375;48.540;9.268;2023-03-19T09:45:11;97259.59;;;16.76;53.61
4814;BME280;15375;48.540;9.268;2023-03-19T09:47:38;97239.53;;;16.48;52.88
4814;BME280;15375;48.540;9.268;2023-03-19T09:50:18;97254.81;;;16.49;54.10
4814;BME280;15375;48.540;9.268;2023-03-19T09:52:54;97248.88;;;16.59;53.01
4814;BME280;15375;48.540;9.268;2023-03-19T09:58:09;97244.97;;;16.12;54.09
4814;BME280;15375;48.540;9.268;2023-03-19T10:00:38;97253.88;;;16.16;54.56
4814;BME280;15375;48.540;9.268;2023-03-19T10:06:25;97246.28;;;15.80;55.76
4814;BME280;15375;48.540;9.268;2023-03-19T10:16:38;97223.03;;;16.75;52.74
4814;BME280;15375;48.540;9.268;2023-03-19T10:19:05;97221.91;;;17.09;51.70
4814;BME280;15375;48.540;9.268;2023-03-19T10:21:37;97225.06;;;17.76;51.56
4814;BME280;15375;48.540;9.268;2023-03-19T10:26:37;97226.47;;;17.21;51.18
4814;BME280;15375;48.540;9.268;2023-03-19T10:29:14;97236.50;;;17.84;52.13
4814;BME280;15375;48.540;9.268;2023-03-19T10:32:25;97230.06;;;17.54;49.95
4814;BME280;15375;48.540;9.268;2023-03-19T10:34:49;97228.03;;;17.64;49.84
4814;BME280;15375;48.540;9.268;2023-03-19T10:37:30;97210.38;;;17.29;49.38
4814;BME280;15375;48.540;9.268;2023-03-19T10:39:58;97216.75;;;17.35;49.89
4814;BME280;15375;48.540;9.268;2023-03-19T10:45:34;97215.34;;;17.48;49.92
4814;BME280;15375;48.540;9.268;2023-03-19T10:48:01;97211.84;;;17.80;49.44
4814;BME280;15375;48.540;9.268;2023-03-19T10:53:03;97178.13;;;17.44;47.72
4814;BME280;15375;48.540;9.268;2023-03-19T10:55:30;97205.22;;;18.11;52.06
4814;BME280;15375;48.540;9.268;2023-03-19T10:58:02;97193.03;;;18.41;49.05
4814;BME280;15375;48.540;9.268;2023-03-19T11:00:29;97170.28;;;17.84;47.81
4814;BME280;15375;48.540;9.268;2023-03-19T11:02:57;97183.59;;;18.57;47.96
4814;BME280;15375;48.540;9.268;2023-03-19T11:05:25;97179.53;;;18.05;48.57
4814;BME280;15375;48.540;9.268;2023-03-19T11:07:58;97186.25;;;17.80;48.51
4814;BME280;15375;48.540;9.268;2023-03-19T11:10:27;97202.94;;;18.09;49.04
4814;BME280;15375;48.540;9.268;2023-03-19T11:12:59;97196.63;;;17.85;49.12
4814;BME280;15375;48.540;9.268;2023-03-19T11:15:32;97194.78;;;18.15;50.24
4814;BME280;15375;48.540;9.268;2023-03-19T11:18:14;97199.66;;;18.20;48.89
4814;BME280;15375;48.540;9.268;2023-03-19T11:20:40;97188.06;;;18.83;46.92
4814;BME280;15375;48.540;9.268;2023-03-19T11:23:29;97190.56;;;18.96;44.80
4814;BME280;15375;48.540;9.268;2023-03-19T11:25:59;97200.84;;;19.25;46.17
4814;BME280;15375;48.540;9.268;2023-03-19T11:28:26;97188.47;;;19.20;44.10
4814;BME280;15375;48.540;9.268;2023-03-19T11:31:09;97200.09;;;19.09;46.90
4814;BME280;15375;48.540;9.268;2023-03-19T11:39:28;97204.75;;;18.12;49.37
4814;BME280;15375;48.540;9.268;2023-03-19T11:45:16;97190.16;;;17.97;48.00
4814;BME280;15375;48.540;9.268;2023-03-19T11:51:02;97190.28;;;19.08;47.49
4814;BME280;15375;48.540;9.268;2023-03-19T11:53:49;97193.50;;;19.22;48.05
4814;BME280;15375;48.540;9.268;2023-03-19T12:04:16;97176.75;;;19.10;44.70
4814;BME280;15375;48.540;9.268;2023-03-19T12:06:51;97177.06;;;18.98;46.97
4814;BME280;15375;48.540;9.268;2023-03-19T12:09:24;97171.09;;;19.34;45.97
4814;BME280;15375;48.540;9.268;2023-03-19T12:12:20;97174.91;;;19.51;46.69
4814;BME280;15375;48.540;9.268;2023-03-19T12:15:04;97164.78;;;19.34;44.80
4814;BME280;15375;48.540;9.268;2023-03-19T12:17:43;97171.91;;;19.69;43.64
4814;BME280;15375;48.540;9.268;2023-03-19T12:20:19;97166.47;;;18.82;44.72
4814;BME280;15375;48.540;9.268;2023-03-19T12:22:57;97130.34;;;18.56;45.25
4814;BME280;15375;48.540;9.268;2023-03-19T12:25:34;97153.63;;;18.02;46.30
4814;BME280;15375;48.540;9.268;2023-03-19T12:36:53;97166.25;;;17.94;46.98
4814;BME280;15375;48.540;9.268;2023-03-19T12:39:24;97164.25;;;17.95;47.69
4814;BME280;15375;48.540;9.268;2023-03-19T12:41:53;97165.09;;;18.24;48.05
4814;BME280;15375;48.540;9.268;2023-03-19T12:44:31;97157.38;;;18.14;47.91
4814;BME280;15375;48.540;9.268;2023-03-19T12:47:02;97153.88;;;18.28;48.87
4814;BME280;15375;48.540;9.268;2023-03-19T12:49:37;97163.00;;;18.19;48.43
4814;BME280;15375;48.540;9.268;2023-03-19T12:52:27;97179.41;;;17.34;51.36
4814;BME280;15375;48.540;9.268;2023-03-19T12:55:23;97170.91;;;17.04;51.76
4814;BME280;15375;48.540;9.268;2023-03-19T12:57:57;97164.78;;;17.51;51.15
4814;BME280;15375;48.540;9.268;2023-03-19T13:00:32;97164.78;;;17.84;52.14
4814;BME280;15375;48.540;9.268;2023-03-19T13:05:44;97152.72;;;17.40;51.27
4814;BME280;15375;48.540;9.268;2023-03-19T13:08:44;97156.03;;;17.62;50.86
4814;BME280;15375;48.540;9.268;2023-03-19T13:11:15;97149.00;;;17.84;50.79
4814;BME280;15375;48.540;9.268;2023-03-19T13:13:57;97143.75;;;17.87;49.21
4814;BME280;15375;48.540;9.268;2023-03-19T13:16:35;97159.53;;;17.86;50.67
4814;BME280;15375;48.540;9.268;2023-03-19T13:19:20;97145.50;;;17.75;51.98
4814;BME280;15375;48.540;9.268;2023-03-19T13:21:53;97159.28;;;17.42;51.66
4814;BME280;15375;48.540;9.268;2023-03-19T13:24:28;97161.03;;;17.31;52.00
4814;BME280;15375;48.540;9.268;2023-03-19T13:26:57;97153.47;;;17.49;51.20
4814;BME280;15375;48.540;9.268;2023-03-19T13:29:29;97148.06;;;17.55;50.76
4814;BME280;15375;48.540;9.268;2023-03-19T13:32:05;97142.25;;;17.62;50.57
4814;BME280;15375;48.540;9.268;2023-03-19T13:34:34;97153.25;;;17.62;50.88
4814;BME280;15375;48.540;9.268;2023-03-19T13:37:13;97154.88;;;17.36;52.60
4814;BME280;15375;48.540;9.268;2023-03-19T13:39:40;97149.38;;;16.94;52.99
4814;BME280;15375;48.540;9.268;2023-03-19T13:45:33;97172.25;;;16.58;54.92
4814;BME280;15375;48.540;9.268;2023-03-19T13:48:22;97162.00;;;16.58;55.44
4814;BME280;15375;48.540;9.268;2023-03-19T13:56:04;97163.94;;;16.49;56.00
4814;BME280;15375;48.540;9.268;2023-03-19T13:58:44;97166.44;;;16.56;54.78
4814;BME280;15375;48.540;9.268;2023-03-19T14:04:34;97166.34;;;17.01;53.52
4814;BME280;15375;48.540;9.268;2023-03-19T14:06:45;97151.34;;;17.02;53.19
4814;BME280;15375;48.540;9.268;2023-03-19T14:12:08;97157.50;;;16.88;53.64
4814;BME280;15375;48.540;9.268;2023-03-19T14:14:42;97157.41;;;16.74;53.61
4814;BME280;15375;48.540;9.268;2023-03-19T14:17:17;97150.19;;;16.67;53.88
4814;BME280;15375;48.540;9.268;2023-03-19T14:19:44;97151.44;;;16.48;55.24
4814;BME280;15375;48.540;9.268;2023-03-19T14:22:31;97159.41;;;16.46;54.61
4814;BME280;15375;48.540;9.268;2023-03-19T14:25:18;97169.78;;;16.24;57.15
4814;BME280;15375;48.540;9.268;2023-03-19T14:27:49;97169.75;;;15.96;59.95
4814;BME280;15375;48.540;9.268;2023-03-19T14:30:43;97170.59;;;15.48;63.23